Time;durP1;ratioP1;P1;durP2;ratioP2;P2;SDS_P1;SDS_P2;PMS_P1;PMS_P2;Temp;Humidity;BMP_temperature;BMP_pressure;BME280_temperature;BME280_humidity;BME280_pressure;Samples;Min_cycle;Max_cycle;Signal;HPM_P1;HPM_P2
2022/05/09 00:01:36;;;;;;;12.60;4.57;;;;;;;;;;5084241;28;20898;-86
2022/05/09 00:04:04;;;;;;;7.63;5.10;;;11.40;99.90;;;;;;5089400;28;20473;-84
2022/05/09 00:06:30;;;;;;;10.17;5.23;;;11.30;1.00;;;;;;5082033;28;20469;-84
2022/05/09 00:08:57;;;;;;;6.70;5.33;;;11.50;99.90;;;;;;5082206;28;20445;-84
2022/05/09 00:11:24;;;;;;;9.90;4.67;;;11.50;1.00;;;;;;5082735;28;20441;-85
2022/05/09 00:13:50;;;;;;;9.10;4.53;;;11.00;1.00;;;;;;5082804;28;20471;-85
2022/05/09 00:16:18;;;;;;;8.83;4.00;;;11.20;1.00;;;;;;5082481;28;20444;-85
2022/05/09 00:18:44;;;;;;;8.07;4.10;;;11.30;96.90;;;;;;5082409;28;20483;-85
2022/05/09 00:21:12;;;;;;;7.93;3.67;;;11.20;99.90;;;;;;5083321;28;20444;-85
2022/05/09 00:23:39;;;;;;;8.50;3.57;;;11.20;99.90;;;;;;5083296;28;20511;-84
2022/05/09 00:26:06;;;;;;;5.77;3.67;;;;;;;;;;5082842;28;20451;-86
2022/05/09 00:28:33;;;;;;;8.60;3.03;;;;;;;;;;5083269;28;20603;-87
2022/05/09 00:31:00;;;;;;;8.43;3.20;;;11.10;99.90;;;;;;5084533;28;20458;-86
2022/05/09 00:33:27;;;;;;;9.30;3.90;;;;;;;;;;5080903;28;21050;-85
2022/05/09 00:35:54;;;;;;;9.17;3.67;;;;;;;;;;5085412;28;20440;-85
2022/05/09 00:38:22;;;;;;;8.47;3.87;;;11.20;1.00;;;;;;5087051;28;20445;-84
2022/05/09 00:43:32;;;;;;;10.23;3.80;;;11.10;56.90;;;;;;5080871;28;20537;-85
2022/05/09 00:45:58;;;;;;;5.87;3.00;;;11.10;99.90;;;;;;5078870;28;20453;-85
2022/05/09 00:48:25;;;;;;;8.93;4.50;;;11.10;99.90;;;;;;5079025;28;20448;-84
2022/05/09 00:50:53;;;;;;;8.03;4.37;;;11.00;1.00;;;;;;5086165;28;20471;-85
2022/05/09 00:53:21;;;;;;;8.80;3.80;;;11.00;1.00;;;;;;5091570;28;20457;-85
2022/05/09 00:55:52;;;;;;;10.90;3.70;;;10.90;1.00;;;;;;5082908;28;20441;-85
2022/05/09 00:58:24;;;;;;;7.50;3.60;;;10.90;99.90;;;;;;5085770;28;20421;-85
2022/05/09 01:00:53;;;;;;;11.27;4.03;;;10.70;99.90;;;;;;5088555;28;20433;-85
2022/05/09 01:03:24;;;;;;;8.57;4.40;;;10.80;99.90;;;;;;5085602;28;20461;-85
2022/05/09 01:05:51;;;;;;;10.80;3.37;;;10.80;1.00;;;;;;5084143;28;20444;-86
2022/05/09 01:08:19;;;;;;;7.37;4.03;;;;;;;;;;5087084;28;20515;-85
2022/05/09 01:10:48;;;;;;;5.17;3.43;;;10.90;1.00;;;;;;5084233;28;20445;-86
2022/05/09 01:13:16;;;;;;;6.43;3.30;;;10.80;1.00;;;;;;5082503;28;20484;-85
2022/05/09 01:15:48;;;;;;;8.60;4.00;;;10.90;1.00;;;;;;5083465;28;20433;-85
2022/05/09 01:18:16;;;;;;;10.43;3.50;;;10.70;91.20;;;;;;5082945;28;20433;-86
2022/05/09 01:20:43;;;;;;;9.60;4.00;;;10.70;97.80;;;;;;5082959;28;20445;-85
2022/05/09 01:23:11;;;;;;;8.83;4.97;;;10.60;1.00;;;;;;5082377;28;20441;-85
2022/05/09 01:25:38;;;;;;;6.27;3.17;;;10.70;99.90;;;;;;5082603;28;20472;-85
2022/05/09 01:28:05;;;;;;;11.33;4.23;;;10.80;78.80;;;;;;5086370;28;20436;-84
2022/05/09 01:30:39;;;;;;;11.97;3.37;;;10.70;50.20;;;;;;5080935;28;20449;-85
2022/05/09 01:35:39;;;;;;;6.87;3.23;;;10.50;99.90;;;;;;5106975;22;20478;-84
2022/05/09 01:38:15;;;;;;;8.00;3.47;;;10.60;57.30;;;;;;5087697;28;20430;-84
2022/05/09 01:40:41;;;;;;;8.10;4.03;;;10.70;99.90;;;;;;5094022;28;20464;-83
2022/05/09 01:43:08;;;;;;;9.53;3.73;;;10.60;99.90;;;;;;5097053;28;20530;-83
2022/05/09 01:45:35;;;;;;;10.13;4.27;;;;;;;;;;5097290;28;20453;-82
2022/05/09 01:50:42;;;;;;;6.33;3.57;;;10.40;1.00;;;;;;5064675;28;20789;-84
2022/05/09 01:53:09;;;;;;;10.90;4.07;;;10.40;1.00;;;;;;5087043;28;20441;-84
2022/05/09 01:55:37;;;;;;;6.27;4.23;;;10.30;1.00;;;;;;5087330;28;20478;-84
2022/05/09 01:58:04;;;;;;;8.80;3.50;;;10.40;1.00;;;;;;5087463;28;20453;-83
2022/05/09 02:00:32;;;;;;;5.50;2.93;;;;;;;;;;5087471;28;20535;-84
2022/05/09 02:02:59;;;;;;;7.90;4.30;;;10.20;1.00;;;;;;5085289;28;20435;-84
2022/05/09 02:05:26;;;;;;;5.70;3.40;;;10.30;1.00;;;;;;5086023;28;20477;-84
2022/05/09 02:07:53;;;;;;;6.43;3.57;;;10.30;1.00;;;;;;5086757;28;20456;-84
2022/05/09 02:10:20;;;;;;;14.77;4.87;;;10.30;1.00;;;;;;5089160;28;20448;-83
2022/05/09 02:12:49;;;;;;;8.43;3.60;;;10.10;1.00;;;;;;5088469;28;20445;-84
2022/05/09 02:15:15;;;;;;;9.70;3.73;;;10.00;1.00;;;;;;5090149;28;20475;-84
2022/05/09 02:17:45;;;;;;;7.63;4.33;;;10.10;1.00;;;;;;5091277;28;20420;-83
2022/05/09 02:20:12;;;;;;;8.70;3.53;;;10.10;1.00;;;;;;5097129;28;20541;-84
2022/05/09 02:22:39;;;;;;;11.33;3.80;;;;;;;;;;5102021;28;20429;-84
2022/05/09 02:25:26;;;;;;;11.23;4.37;;;10.00;1.00;;;;;;5102012;28;20517;-84
2022/05/09 02:27:54;;;;;;;9.80;3.87;;;9.70;1.00;;;;;;5102163;28;20441;-84
2022/05/09 02:30:21;;;;;;;7.50;4.40;;;9.90;1.00;;;;;;5101920;28;20402;-84
2022/05/09 02:32:48;;;;;;;6.57;4.60;;;;;;;;;;5099540;28;20516;-84
2022/05/09 02:35:15;;;;;;;10.30;5.00;;;10.00;1.00;;;;;;5091253;28;21013;-84
2022/05/09 02:37:42;;;;;;;10.80;3.87;;;;;;;;;;5089607;28;20460;-84
2022/05/09 02:40:09;;;;;;;6.77;3.70;;;9.90;1.00;;;;;;5086758;28;20491;-84
2022/05/09 02:42:36;;;;;;;9.87;4.80;;;9.80;1.00;;;;;;5089618;28;20514;-85
2022/05/09 02:45:06;;;;;;;11.98;4.30;;;10.00;1.00;;;;;;5090234;28;20496;-85
2022/05/09 02:47:33;;;;;;;8.87;4.43;;;9.70;1.00;;;;;;5090948;28;20210;-83
2022/05/09 02:49:59;;;;;;;8.10;5.10;;;9.70;1.00;;;;;;5091159;28;20433;-83
2022/05/09 02:52:26;;;;;;;6.90;4.50;;;9.60;10.90;;;;;;5090566;28;20482;-84
2022/05/09 02:54:53;;;;;;;6.67;4.40;;;9.60;1.00;;;;;;5090206;28;20464;-83
2022/05/09 02:57:19;;;;;;;7.07;3.80;;;9.60;1.00;;;;;;5089931;28;20506;-83
2022/05/09 02:59:47;;;;;;;11.00;4.40;;;9.60;1.00;;;;;;5090585;28;20461;-84
2022/05/09 03:02:15;;;;;;;10.77;4.43;;;9.70;28.50;;;;;;5089807;28;20445;-84
2022/05/09 03:04:41;;;;;;;9.47;4.90;;;9.50;10.60;;;;;;5090156;28;20461;-84
2022/05/09 03:07:07;;;;;;;10.00;4.30;;;9.50;29.90;;;;;;5090246;28;20474;-84
2022/05/09 03:09:34;;;;;;;8.70;4.27;;;9.50;14.30;;;;;;5089862;28;20206;-84
2022/05/09 03:12:01;;;;;;;7.80;4.23;;;9.40;33.50;;;;;;5088980;28;20441;-83
2022/05/09 03:14:28;;;;;;;12.90;3.97;;;;;;;;;;5089128;28;20522;-84
2022/05/09 03:16:55;;;;;;;11.07;4.63;;;;;;;;;;5089905;28;20445;-84
2022/05/09 03:19:24;;;;;;;8.07;4.40;;;9.50;79.30;;;;;;5090616;28;20530;-84
2022/05/09 03:21:51;;;;;;;12.10;4.20;;;9.40;43.90;;;;;;5092056;28;20428;-84
2022/05/09 03:24:19;;;;;;;5.73;4.67;;;9.70;99.90;;;;;;5091759;28;20461;-83
2022/05/09 03:26:46;;;;;;;12.13;4.60;;;9.30;84.80;;;;;;5092171;28;20520;-83
2022/05/09 03:29:13;;;;;;;14.17;4.73;;;9.30;76.70;;;;;;5092843;28;20444;-83
2022/05/09 03:31:40;;;;;;;7.70;4.73;;;;;;;;;;5094868;28;20481;-84
2022/05/09 03:34:06;;;;;;;10.00;5.50;;;9.20;90.70;;;;;;5093060;28;20472;-84
2022/05/09 03:36:35;;;;;;;7.40;5.10;;;9.20;99.90;;;;;;5093648;28;20445;-84
2022/05/09 03:39:02;;;;;;;9.10;5.00;;;9.30;92.70;;;;;;5092181;28;20422;-84
2022/05/09 03:41:28;;;;;;;11.70;5.63;;;9.20;99.90;;;;;;5093101;28;20440;-84
2022/05/09 03:43:55;;;;;;;12.40;5.40;;;9.20;99.90;;;;;;5091609;28;20464;-83
2022/05/09 03:46:22;;;;;;;10.00;5.10;;;;;;;;;;5091089;28;20471;-83
2022/05/09 03:48:48;;;;;;;11.23;5.73;;;9.20;99.90;;;;;;5093570;28;20447;-83
2022/05/09 03:51:15;;;;;;;11.40;5.70;;;9.20;99.90;;;;;;5098636;28;20415;-83
2022/05/09 03:53:43;;;;;;;7.73;5.57;;;9.30;99.90;;;;;;5098577;28;20453;-83
2022/05/09 03:56:10;;;;;;;12.37;5.93;;;9.20;99.90;;;;;;5098182;28;20429;-83
2022/05/09 03:58:37;;;;;;;8.80;5.17;;;9.10;99.90;;;;;;5092619;28;20461;-83
2022/05/09 04:01:03;;;;;;;13.17;5.70;;;9.20;99.90;;;;;;5099876;28;20515;-84
2022/05/09 04:03:31;;;;;;;10.07;6.50;;;;;;;;;;5100042;28;20414;-84
2022/05/09 04:05:58;;;;;;;11.10;6.07;;;;;;;;;;5099359;28;20497;-84
2022/05/09 04:08:25;;;;;;;8.90;5.97;;;9.20;99.90;;;;;;5100111;28;20178;-85
2022/05/09 04:10:55;;;;;;;11.13;5.53;;;9.20;99.90;;;;;;5098255;28;20433;-84
2022/05/09 04:13:22;;;;;;;8.00;5.70;;;;;;;;;;5090042;28;20473;-84
2022/05/09 04:18:37;;;;;;;9.00;5.50;;;9.30;99.90;;;;;;5090446;28;20412;-82
2022/05/09 04:21:05;;;;;;;7.20;5.43;;;9.20;99.90;;;;;;5090226;28;20965;-83
2022/05/09 04:23:33;;;;;;;12.80;6.03;;;;;;;;;;5091804;28;20456;-83
2022/05/09 04:26:01;;;;;;;8.80;5.40;;;9.20;99.90;;;;;;5091657;28;20445;-83
2022/05/09 04:28:28;;;;;;;8.00;6.30;;;9.30;99.90;;;;;;5090425;28;20449;-84
2022/05/09 04:30:55;;;;;;;6.40;5.50;;;9.00;99.90;;;;;;5097121;28;20420;-84
2022/05/09 04:33:21;;;;;;;9.60;5.53;;;9.20;99.90;;;;;;5098556;28;20433;-84
2022/05/09 04:35:48;;;;;;;10.48;5.85;;;9.60;99.90;;;;;;5099209;28;20423;-84
2022/05/09 04:38:21;;;;;;;7.67;6.73;;;9.40;99.90;;;;;;5099337;28;20194;-84
2022/05/09 04:40:51;;;;;;;12.50;6.60;;;9.40;99.90;;;;;;5098736;28;20477;-84
2022/05/09 04:43:20;;;;;;;10.80;6.00;;;9.40;99.90;;;;;;5099360;28;20407;-84
2022/05/09 04:45:48;;;;;;;10.13;6.17;;;9.30;99.90;;;;;;5099552;28;20421;-84
2022/05/09 04:48:15;;;;;;;10.50;5.87;;;9.40;99.90;;;;;;5099356;28;20429;-84
2022/05/09 04:50:42;;;;;;;12.63;6.40;;;9.40;99.90;;;;;;5092246;28;20475;-84
2022/05/09 04:53:08;;;;;;;13.17;6.77;;;9.40;99.90;;;;;;5086670;28;20445;-84
2022/05/09 04:55:35;;;;;;;12.50;6.53;;;;;;;;;;5088273;28;20538;-83
2022/05/09 04:58:03;;;;;;;9.03;5.40;;;9.50;99.90;;;;;;5087719;28;20445;-83
2022/05/09 05:00:31;;;;;;;8.83;6.70;;;9.60;99.90;;;;;;5087897;28;20484;-84
2022/05/09 05:02:58;;;;;;;12.17;6.10;;;9.60;99.90;;;;;;5089278;28;20445;-84
2022/05/09 05:05:26;;;;;;;14.13;5.77;;;9.40;99.90;;;;;;5089429;28;20975;-83
2022/05/09 05:07:53;;;;;;;9.30;6.83;;;9.70;99.90;;;;;;5094712;28;20502;-83
2022/05/09 05:10:20;;;;;;;7.80;6.13;;;;;;;;;;5096089;28;20417;-83
2022/05/09 05:12:47;;;;;;;10.23;6.10;;;9.60;99.90;;;;;;5093934;28;20783;-83
2022/05/09 05:15:14;;;;;;;14.23;7.60;;;;;;;;;;5090960;28;20755;-83
2022/05/09 05:17:42;;;;;;;14.53;7.47;;;9.80;99.90;;;;;;5089179;28;20845;-84
2022/05/09 05:20:13;;;;;;;9.03;6.23;;;9.90;88.20;;;;;;5089283;28;20483;-84
2022/05/09 05:22:42;;;;;;;10.73;5.93;;;9.80;88.90;;;;;;5089181;28;20449;-83
2022/05/09 05:25:12;;;;;;;10.17;7.20;;;9.90;78.80;;;;;;5089238;28;20968;-83
2022/05/09 05:27:39;;;;;;;12.80;6.80;;;10.00;59.00;;;;;;5088797;28;20453;-83
2022/05/09 05:30:08;;;;;;;9.67;6.60;;;10.00;57.60;;;;;;5089006;28;20479;-83
2022/05/09 05:32:37;;;;;;;9.80;6.30;;;10.10;41.00;;;;;;5088742;28;20448;-84
2022/05/09 05:35:06;;;;;;;10.97;7.03;;;10.20;41.30;;;;;;5088154;28;20507;-83
2022/05/09 05:37:33;;;;;;;8.43;6.13;;;10.60;19.00;;;;;;5088622;28;20437;-83
2022/05/09 05:40:01;;;;;;;9.70;6.67;;;10.30;1.00;;;;;;5088458;28;20476;-83
2022/05/09 05:42:29;;;;;;;9.80;7.00;;;10.50;1.80;;;;;;5088142;28;20482;-83
2022/05/09 05:44:56;;;;;;;10.80;7.40;;;;;;;;;;5087755;28;20465;-83
2022/05/09 05:47:23;;;;;;;9.00;6.70;;;10.60;1.00;;;;;;5088322;28;20449;-84
2022/05/09 05:49:50;;;;;;;11.17;6.70;;;10.50;1.00;;;;;;5087480;28;20445;-84
2022/05/09 05:52:21;;;;;;;11.73;7.20;;;10.60;1.00;;;;;;5089010;28;20444;-84
2022/05/09 05:54:48;;;;;;;9.50;8.00;;;;;;;;;;5091793;28;20476;-84
2022/05/09 05:57:20;;;;;;;19.90;7.77;;;10.80;1.00;;;;;;5093287;28;20459;-84
2022/05/09 05:59:49;;;;;;;8.87;6.87;;;10.90;1.00;;;;;;5100433;28;20432;-82
2022/05/09 06:02:15;;;;;;;9.00;7.53;;;10.80;1.00;;;;;;5100753;28;20547;-83
2022/05/09 06:04:42;;;;;;;8.90;7.10;;;10.90;1.00;;;;;;5098649;28;20530;-84
2022/05/09 06:07:08;;;;;;;9.00;6.40;;;11.00;1.00;;;;;;5092273;28;20448;-84
2022/05/09 06:09:36;;;;;;;10.63;6.60;;;11.10;1.00;;;;;;5092255;28;20445;-84
2022/05/09 06:12:04;;;;;;;8.23;7.00;;;12.10;1.00;;;;;;5091686;28;20467;-84
2022/05/09 06:14:30;;;;;;;8.77;5.40;;;11.10;1.00;;;;;;5091471;28;20472;-84
2022/05/09 06:16:57;;;;;;;8.27;5.93;;;;;;;;;;5090865;28;20803;-84
2022/05/09 06:19:24;;;;;;;10.07;6.77;;;11.40;1.00;;;;;;5087878;28;20448;-84
2022/05/09 06:21:51;;;;;;;10.47;6.90;;;;;;;;;;5089539;28;20551;-84
2022/05/09 06:24:18;;;;;;;9.80;6.67;;;;;;;;;;5088313;28;20469;-83
2022/05/09 06:26:48;;;;;;;13.27;7.40;;;11.20;1.00;;;;;;5089670;28;20441;-83
2022/05/09 06:29:15;;;;;;;9.10;6.90;;;;;;;;;;5086823;28;20433;-84
2022/05/09 06:31:42;;;;;;;9.53;7.07;;;;;;;;;;5086115;28;20512;-84
2022/05/09 06:34:11;;;;;;;10.07;6.93;;;11.60;1.00;;;;;;5087883;28;20472;-84
2022/05/09 06:36:38;;;;;;;7.60;6.80;;;14.00;1.00;;;;;;5089631;28;20455;-83
2022/05/09 06:39:07;;;;;;;11.90;7.27;;;11.80;1.00;;;;;;5089130;28;20927;-84
2022/05/09 06:41:34;;;;;;;10.40;6.73;;;;;;;;;;5089808;28;20484;-84
2022/05/09 06:44:02;;;;;;;9.67;7.23;;;12.10;1.00;;;;;;5089075;28;20464;-84
2022/05/09 06:46:29;;;;;;;18.70;8.20;;;;;;;;;;5090513;28;20443;-84
2022/05/09 06:48:55;;;;;;;7.80;6.13;;;12.30;1.00;;;;;;5090195;28;20479;-84
2022/05/09 06:51:22;;;;;;;11.93;7.20;;;12.20;1.00;;;;;;5090463;28;20441;-84
2022/05/09 06:53:51;;;;;;;12.17;6.57;;;12.40;1.00;;;;;;5090224;28;20471;-84
2022/05/09 06:56:17;;;;;;;8.27;6.70;;;12.00;1.00;;;;;;5091661;28;20465;-85
2022/05/09 06:58:44;;;;;;;8.80;6.90;;;12.30;1.00;;;;;;5086532;28;20502;-84
2022/05/09 07:01:17;;;;;;;12.13;6.13;;;12.30;1.00;;;;;;5085627;28;20481;-84
2022/05/09 07:03:44;;;;;;;9.80;8.07;;;12.40;1.00;;;;;;5086335;28;20465;-84
2022/05/09 07:06:11;;;;;;;8.73;5.97;;;;;;;;;;5088025;28;20454;-84
2022/05/09 07:08:38;;;;;;;8.73;5.50;;;12.30;1.00;;;;;;5088782;28;20434;-84
2022/05/09 07:11:06;;;;;;;9.07;6.87;;;12.40;1.00;;;;;;5088723;28;20452;-84
2022/05/09 07:13:34;;;;;;;8.97;6.20;;;;;;;;;;5088769;28;20524;-84
2022/05/09 07:16:00;;;;;;;10.93;7.33;;;12.50;1.00;;;;;;5090181;28;20540;-83
2022/05/09 07:18:29;;;;;;;9.90;6.20;;;12.50;1.00;;;;;;5091498;28;20442;-84
2022/05/09 07:20:57;;;;;;;11.07;6.90;;;12.70;1.00;;;;;;5090819;28;20480;-83
2022/05/09 07:23:24;;;;;;;12.17;7.23;;;12.70;1.00;;;;;;5090563;28;20444;-83
2022/05/09 07:25:51;;;;;;;13.30;9.20;;;12.90;1.00;;;;;;5090798;28;20457;-84
2022/05/09 07:28:21;;;;;;;11.33;7.00;;;13.10;1.00;;;;;;5095693;28;20517;-84
2022/05/09 07:30:48;;;;;;;8.30;7.10;;;;;;;;;;5100444;28;20426;-84
2022/05/09 07:33:15;;;;;;;57.70;47.23;;;13.40;99.90;;;;;;5100173;28;20430;-84
2022/05/09 07:35:43;;;;;;;20.43;13.47;;;13.50;99.90;;;;;;5100373;28;20436;-84
2022/05/09 07:38:11;;;;;;;8.73;7.20;;;13.60;99.90;;;;;;5100363;28;20443;-84
2022/05/09 07:40:39;;;;;;;10.37;6.30;;;13.60;99.90;;;;;;5096859;28;20489;-83
2022/05/09 07:43:10;;;;;;;12.40;6.87;;;13.60;99.90;;;;;;5086372;28;20456;-84
2022/05/09 07:45:36;;;;;;;7.17;5.80;;;13.60;99.90;;;;;;5087242;28;20415;-84
2022/05/09 07:48:03;;;;;;;13.60;6.83;;;14.00;99.90;;;;;;5085418;28;20455;-84
2022/05/09 07:50:30;;;;;;;10.13;6.70;;;13.80;99.90;;;;;;5087910;28;20498;-84
2022/05/09 07:52:58;;;;;;;8.60;5.60;;;13.90;99.90;;;;;;5087625;28;20444;-84
2022/05/09 07:55:25;;;;;;;8.57;5.97;;;14.00;99.90;;;;;;5092390;28;20469;-84
2022/05/09 07:57:52;;;;;;;9.10;6.43;;;;;;;;;;5091476;28;20440;-84
2022/05/09 08:00:19;;;;;;;9.90;7.10;;;14.00;99.90;;;;;;5091089;28;20417;-84
2022/05/09 08:02:46;;;;;;;6.00;5.40;;;14.00;99.90;;;;;;5091029;28;20460;-84
2022/05/09 08:05:14;;;;;;;8.60;6.67;;;;;;;;;;5089392;28;20473;-84
2022/05/09 08:07:41;;;;;;;11.23;7.00;;;14.10;99.90;;;;;;5089550;28;20451;-85
2022/05/09 08:10:12;;;;;;;15.20;7.30;;;14.20;99.90;;;;;;5090400;28;20470;-84
2022/05/09 08:12:40;;;;;;;18.27;7.20;;;14.40;99.90;;;;;;5088924;28;20452;-85
2022/05/09 08:15:09;;;;;;;9.53;6.90;;;14.40;99.90;;;;;;5087618;28;20500;-84
2022/05/09 08:17:36;;;;;;;12.20;9.43;;;;;;;;;;5087950;28;20448;-84
2022/05/09 08:20:03;;;;;;;10.50;6.13;;;;;;;;;;5087655;28;20965;-84
2022/05/09 08:22:31;;;;;;;9.13;6.87;;;14.50;89.20;;;;;;5096492;28;20470;-84
2022/05/09 08:24:58;;;;;;;14.47;6.57;;;14.60;99.90;;;;;;5097887;28;20461;-84
2022/05/09 08:27:26;;;;;;;16.33;8.20;;;14.80;99.90;;;;;;5097033;28;20459;-84
2022/05/09 08:29:56;;;;;;;12.70;7.03;;;;;;;;;;5090291;28;20456;-84
2022/05/09 08:32:23;;;;;;;9.20;6.90;;;15.00;1.00;;;;;;5095807;28;20504;-84
2022/05/09 08:34:51;;;;;;;8.33;6.70;;;;;;;;;;5096404;28;20453;-83
2022/05/09 08:37:18;;;;;;;13.43;6.50;;;15.10;1.00;;;;;;5093145;28;20444;-85
2022/05/09 08:39:45;;;;;;;11.40;6.63;;;15.70;1.00;;;;;;5095014;28;20451;-84
2022/05/09 08:42:18;;;;;;;7.13;5.37;;;15.30;1.00;;;;;;5097963;28;20515;-84
2022/05/09 08:45:04;;;;;;;10.73;6.97;;;15.30;51.60;;;;;;5094248;28;20461;-84
2022/05/09 08:47:55;;;;;;;7.07;4.90;;;15.50;1.00;;;;;;5091003;28;20428;-84
2022/05/09 08:50:28;;;;;;;11.40;7.10;;;15.50;99.90;;;;;;5092396;28;20429;-85
2022/05/09 08:53:00;;;;;;;12.03;5.90;;;15.50;99.90;;;;;;5095398;28;20440;-84
2022/05/09 08:55:32;;;;;;;11.33;6.03;;;15.70;99.90;;;;;;5091121;28;20489;-84
2022/05/09 08:58:03;;;;;;;14.43;6.80;;;15.90;1.00;;;;;;5091453;28;20422;-83
2022/05/09 09:00:32;;;;;;;9.07;6.27;;;15.90;1.00;;;;;;5090249;28;20464;-84
2022/05/09 09:03:07;;;;;;;17.47;6.43;;;15.90;99.90;;;;;;5089698;28;20476;-84
2022/05/09 09:05:37;;;;;;;11.70;5.30;;;16.20;99.90;;;;;;5088835;28;20522;-83
2022/05/09 09:08:21;;;;;;;8.87;4.33;;;16.20;99.90;;;;;;5088422;28;20433;-83
2022/05/09 09:10:56;;;;;;;6.50;5.83;;;16.40;99.90;;;;;;5088073;28;20486;-84
2022/05/09 09:13:34;;;;;;;15.23;5.70;;;16.80;99.90;;;;;;5093006;28;20486;-84
2022/05/09 09:16:16;;;;;;;12.60;5.50;;;16.40;99.90;;;;;;5095325;28;20405;-84
2022/05/09 09:18:57;;;;;;;7.57;4.50;;;16.60;99.90;;;;;;5091749;28;20501;-84
2022/05/09 09:21:31;;;;;;;9.00;4.40;;;16.60;99.90;;;;;;5089773;28;20464;-84
2022/05/09 09:24:39;;;;;;;9.40;5.10;;;16.60;99.90;;;;;;5087122;28;20473;-84
2022/05/09 09:27:19;;;;;;;9.10;4.97;;;16.60;99.90;;;;;;5025281;28;20443;-84
2022/05/09 09:29:52;;;;;;;10.60;4.80;;;17.30;99.90;;;;;;5084236;28;20448;-84
2022/05/09 09:32:22;;;;;;;5.80;4.10;;;17.00;99.90;;;;;;5087204;28;20803;-84
2022/05/09 09:34:53;;;;;;;4.30;3.87;;;17.00;99.90;;;;;;5086949;28;20472;-84
2022/05/09 09:37:27;;;;;;;8.67;4.13;;;17.20;99.90;;;;;;5086706;28;20455;-85
2022/05/09 09:39:53;;;;;;;5.00;4.50;;;17.30;99.90;;;;;;5087975;28;20459;-84
2022/05/09 09:42:21;;;;;;;6.20;3.80;;;17.20;99.90;;;;;;5086455;28;20510;-84
2022/05/09 09:44:49;;;;;;;5.67;4.17;;;17.40;99.90;;;;;;5086440;28;20511;-84
2022/05/09 09:47:25;;;;;;;6.67;3.33;;;17.50;99.90;;;;;;5088434;28;20784;-85
2022/05/09 09:50:13;;;;;;;4.40;3.67;;;17.50;99.90;;;;;;5089196;28;20459;-84
2022/05/09 09:52:49;;;;;;;10.33;5.20;;;17.60;99.90;;;;;;5090336;28;20449;-84
2022/05/09 09:55:27;;;;;;;5.63;3.63;;;17.80;99.90;;;;;;5087447;28;20500;-84
2022/05/09 09:57:55;;;;;;;5.53;3.17;;;17.60;99.90;;;;;;5087310;28;20429;-85
2022/05/09 10:00:25;;;;;;;5.57;4.57;;;17.70;99.90;;;;;;5086883;28;20541;-84
2022/05/09 10:02:55;;;;;;;5.73;3.10;;;18.00;99.90;;;;;;5086851;28;20496;-85
2022/05/09 10:05:32;;;;;;;5.30;3.60;;;17.90;99.90;;;;;;5091525;28;20456;-84
2022/05/09 10:07:59;;;;;;;10.10;5.27;;;;;;;;;;5096523;28;20433;-84
2022/05/09 10:10:28;;;;;;;7.30;3.70;;;18.10;99.90;;;;;;5096210;28;20433;-84
2022/05/09 10:12:58;;;;;;;5.00;3.93;;;18.10;99.90;;;;;;5095596;28;20444;-84
2022/05/09 10:15:29;;;;;;;8.40;4.23;;;18.00;99.90;;;;;;5084160;28;20479;-85
2022/05/09 10:17:59;;;;;;;6.60;3.40;;;17.90;99.90;;;;;;5085191;28;20429;-85
2022/05/09 10:20:33;;;;;;;5.30;2.77;;;17.90;99.90;;;;;;5085926;28;20441;-85
2022/05/09 10:26:00;;;;;;;7.37;4.43;;;18.10;99.90;;;;;;5094094;28;20408;-84
2022/05/09 10:28:31;;;;;;;6.60;3.83;;;18.30;99.90;;;;;;5097833;28;20432;-85
2022/05/09 10:31:05;;;;;;;6.53;3.50;;;18.30;99.90;;;;;;5097510;28;20439;-84
2022/05/09 10:33:40;;;;;;;6.17;4.03;;;18.30;99.90;;;;;;5096073;28;20472;-84
2022/05/09 10:36:21;;;;;;;9.43;3.33;;;18.30;99.90;;;;;;5097728;28;20462;-84
2022/05/09 10:38:52;;;;;;;6.60;3.80;;;18.30;99.80;;;;;;5097771;28;20448;-84
2022/05/09 10:41:28;;;;;;;6.40;3.93;;;18.60;99.90;;;;;;5098143;28;20433;-84
2022/05/09 10:43:59;;;;;;;5.87;3.40;;;18.30;99.90;;;;;;5099991;28;20511;-85
2022/05/09 10:46:40;;;;;;;5.17;4.40;;;18.40;99.90;;;;;;5096407;28;20410;-83
2022/05/09 10:49:17;;;;;;;8.70;3.57;;;18.40;99.90;;;;;;5094074;28;20539;-84
2022/05/09 10:51:54;;;;;;;4.10;3.47;;;18.70;99.90;;;;;;5093987;28;20508;-83
2022/05/09 10:54:28;;;;;;;5.03;3.40;;;18.50;99.90;;;;;;5093194;28;20456;-84
2022/05/09 10:56:59;;;;;;;7.00;3.60;;;18.60;99.90;;;;;;5093511;28;20433;-84
2022/05/09 10:59:28;;;;;;;3.10;2.80;;;18.50;98.10;;;;;;5089168;28;20439;-84
2022/05/09 11:02:01;;;;;;;6.50;4.70;;;18.40;98.60;;;;;;5085984;28;20477;-83
2022/05/09 11:04:30;;;;;;;5.90;4.13;;;18.50;99.90;;;;;;5085727;28;20522;-83
2022/05/09 11:07:07;;;;;;;4.83;3.03;;;18.50;99.90;;;;;;5085827;28;20498;-85
2022/05/09 11:09:57;;;;;;;5.07;4.13;;;18.70;99.60;;;;;;5090058;28;20433;-84
2022/05/09 11:13:00;;;;;;;6.60;3.50;;;18.80;99.90;;;;;;5087955;28;20921;-83
2022/05/09 11:15:36;;;;;;;5.10;2.93;;;19.10;99.90;;;;;;5086174;28;20815;-84
2022/05/09 11:18:28;;;;;;;7.60;3.07;;;18.70;99.90;;;;;;5087174;28;20486;-84
2022/05/09 11:21:04;;;;;;;5.30;3.63;;;19.00;99.90;;;;;;5087520;28;20455;-84
2022/05/09 11:23:38;;;;;;;5.10;2.43;;;19.30;99.90;;;;;;5086838;28;20476;-84
2022/05/09 11:26:14;;;;;;;5.03;3.43;;;19.10;99.90;;;;;;5086462;28;20498;-83
2022/05/09 11:29:00;;;;;;;4.33;2.90;;;19.00;99.90;;;;;;5086663;28;20490;-83
2022/05/09 11:31:32;;;;;;;5.33;3.17;;;19.10;97.10;;;;;;5086416;28;20467;-84
2022/05/09 11:34:15;;;;;;;5.27;3.00;;;19.00;97.10;;;;;;5085254;28;20848;-84
2022/05/09 11:36:59;;;;;;;6.73;4.57;;;19.00;95.50;;;;;;5090080;28;20440;-84
2022/05/09 11:39:36;;;;;;;5.77;2.97;;;19.60;99.90;;;;;;5082003;28;20433;-84
2022/05/09 11:45:01;;;;;;;5.80;2.97;;;19.90;99.90;;;;;;5098345;28;20453;-84
2022/05/09 11:47:36;;;;;;;6.67;3.00;;;19.60;93.20;;;;;;5099716;28;20425;-85
2022/05/09 11:50:40;;;;;;;4.87;2.70;;;19.60;95.40;;;;;;5099750;28;20429;-84
2022/05/09 11:53:09;;;;;;;3.37;2.70;;;20.20;99.90;;;;;;5090383;28;20441;-84
2022/05/09 11:55:39;;;;;;;6.63;3.20;;;19.90;97.80;;;;;;5094259;28;20461;-85
2022/05/09 11:58:06;;;;;;;6.10;3.40;;;;;;;;;;5083178;28;20434;-84
2022/05/09 12:00:51;;;;;;;2.73;2.47;;;19.70;92.50;;;;;;5082966;28;20494;-84
2022/05/09 12:03:51;;;;;;;3.10;2.80;;;19.40;99.90;;;;;;5083014;28;20485;-84
2022/05/09 12:06:34;;;;;;;3.70;2.70;;;19.80;92.50;;;;;;5081990;28;20498;-84
2022/05/09 12:09:08;;;;;;;3.77;2.90;;;19.50;93.90;;;;;;5094287;28;20413;-84
2022/05/09 12:11:53;;;;;;;7.43;4.40;;;20.00;99.90;;;;;;5098999;28;20427;-85
2022/05/09 12:14:43;;;;;;;4.17;3.30;;;19.70;90.40;;;;;;5097045;28;20504;-84
2022/05/09 12:17:35;;;;;;;4.77;3.03;;;19.90;99.90;;;;;;5093290;28;20445;-85
2022/05/09 12:20:05;;;;;;;4.13;3.57;;;19.80;91.40;;;;;;5087271;28;20437;-83
2022/05/09 12:22:39;;;;;;;4.13;3.23;;;19.90;93.70;;;;;;5085035;28;20465;-84
2022/05/09 12:25:10;;;;;;;4.97;3.53;;;19.80;89.00;;;;;;5083328;28;20530;-84
2022/05/09 12:27:47;;;;;;;5.27;3.77;;;19.60;92.20;;;;;;5092100;28;20429;-83
2022/05/09 12:30:40;;;;;;;3.70;2.73;;;19.80;92.50;;;;;;5093839;28;20437;-83
2022/05/09 12:33:16;;;;;;;3.87;3.13;;;19.80;88.30;;;;;;5085737;28;20421;-84
2022/05/09 12:35:44;;;;;;;2.93;2.63;;;20.20;99.90;;;;;;5083144;28;20424;-84
2022/05/09 12:38:12;;;;;;;7.30;3.57;;;19.90;93.10;;;;;;5082405;28;20436;-84
2022/05/09 12:40:41;;;;;;;5.17;3.53;;;20.20;88.70;;;;;;5083366;28;20445;-84
2022/05/09 12:43:10;;;;;;;5.07;3.60;;;20.10;88.30;;;;;;5082264;28;20484;-85
2022/05/09 12:45:40;;;;;;;5.40;3.53;;;20.00;90.00;;;;;;5082384;28;20440;-84
2022/05/09 12:48:10;;;;;;;4.97;3.60;;;19.90;96.00;;;;;;5084621;28;20436;-84
2022/05/09 12:50:43;;;;;;;4.10;3.00;;;20.10;90.50;;;;;;5084783;28;20437;-84
2022/05/09 12:53:14;;;;;;;4.80;4.10;;;20.20;92.00;;;;;;5088079;28;20456;-84
2022/05/09 12:55:56;;;;;;;9.20;6.37;;;20.20;92.30;;;;;;5088713;28;20436;-84
2022/05/09 12:58:25;;;;;;;5.33;4.83;;;20.40;94.50;;;;;;5091295;28;20437;-82
2022/05/09 13:00:57;;;;;;;5.73;4.37;;;20.50;94.60;;;;;;5092087;28;20449;-83
2022/05/09 13:03:24;;;;;;;7.10;4.67;;;20.40;99.90;;;;;;5092756;28;20499;-84
2022/05/09 13:05:51;;;;;;;4.33;3.93;;;;;;;;;;5093282;28;20812;-83
2022/05/09 13:08:18;;;;;;;4.97;4.00;;;20.20;92.20;;;;;;5089884;28;20539;-84
2022/05/09 13:10:50;;;;;;;6.50;4.27;;;20.20;90.80;;;;;;5090335;28;20449;-83
2022/05/09 13:13:27;;;;;;;4.30;3.33;;;20.20;98.20;;;;;;5092938;28;20444;-84
2022/05/09 13:15:54;;;;;;;3.60;3.20;;;20.20;93.70;;;;;;5093233;28;20436;-83
2022/05/09 13:18:25;;;;;;;12.67;3.73;;;20.10;90.50;;;;;;5088645;28;20448;-84
2022/05/09 13:20:54;;;;;;;5.10;3.73;;;20.20;92.40;;;;;;5084257;28;20513;-84
2022/05/09 13:23:31;;;;;;;4.57;3.77;;;19.80;99.90;;;;;;5083377;28;20460;-84
2022/05/09 13:26:03;;;;;;;5.43;3.60;;;20.40;94.60;;;;;;5082300;28;20448;-84
2022/05/09 13:28:41;;;;;;;6.00;4.00;;;20.40;94.90;;;;;;5083556;28;20445;-84
2022/05/09 13:31:08;;;;;;;5.07;3.87;;;;;;;;;;5083398;28;20432;-83
2022/05/09 13:33:35;;;;;;;4.50;4.00;;;20.90;97.80;;;;;;5082890;28;20480;-83
2022/05/09 13:36:05;;;;;;;5.37;4.00;;;20.70;95.10;;;;;;5088276;28;20425;-85